sensor_id;sensor_type;location;lat;lon;timestamp;temperature;humidity
16814;DHT22;8524;57.650;11.926;2022-08-19T00:01:29;18.50;99.90
16814;DHT22;8524;57.650;11.926;2022-08-19T00:03:57;18.40;99.90
16814;DHT22;8524;57.650;11.926;2022-08-19T00:06:24;18.40;99.90
16814;DHT22;8524;57.650;11.926;2022-08-19T00:08:51;18.40;99.90
16814;DHT22;8524;57.650;11.926;2022-08-19T00:11:19;18.40;99.90
16814;DHT22;8524;57.650;11.926;2022-08-19T00:13:46;18.40;99.90
16814;DHT22;8524;57.650;11.926;2022-08-19T00:16:15;18.40;99.90
16814;DHT22;8524;57.650;11.926;2022-08-19T00:18:46;18.40;99.90
16814;DHT22;8524;57.650;11.926;2022-08-19T00:21:13;18.30;99.90
16814;DHT22;8524;57.650;11.926;2022-08-19T00:23:40;18.30;99.90
16814;DHT22;8524;57.650;11.926;2022-08-19T00:26:09;18.30;99.90
16814;DHT22;8524;57.650;11.926;2022-08-19T00:28:38;18.30;99.90
16814;DHT22;8524;57.650;11.926;2022-08-19T00:31:06;18.30;99.90
16814;DHT22;8524;57.650;11.926;2022-08-19T00:33:35;18.40;99.90
16814;DHT22;8524;57.650;11.926;2022-08-19T00:36:04;18.40;99.90
16814;DHT22;8524;57.650;11.926;2022-08-19T00:38:32;18.40;99.90
16814;DHT22;8524;57.650;11.926;2022-08-19T00:40:59;18.30;99.90
16814;DHT22;8524;57.650;11.926;2022-08-19T00:43:27;18.40;99.90
16814;DHT22;8524;57.650;11.926;2022-08-19T00:45:55;18.40;99.90
16814;DHT22;8524;57.650;11.926;2022-08-19T00:48:23;18.40;99.90
16814;DHT22;8524;57.650;11.926;2022-08-19T00:50:51;18.40;99.90
16814;DHT22;8524;57.650;11.926;2022-08-19T00:53:21;18.40;99.90
16814;DHT22;8524;57.650;11.926;2022-08-19T00:55:51;18.40;99.90
16814;DHT22;8524;57.650;11.926;2022-08-19T00:58:21;18.40;99.90
16814;DHT22;8524;57.650;11.926;2022-08-19T01:00:48;18.40;99.90
16814;DHT22;8524;57.650;11.926;2022-08-19T01:03:20;18.30;99.90
16814;DHT22;8524;57.650;11.926;2022-08-19T01:05:49;18.30;99.90
16814;DHT22;8524;57.650;11.926;2022-08-19T01:08:18;18.30;99.90
16814;DHT22;8524;57.650;11.926;2022-08-19T01:10:57;18.30;99.90
16814;DHT22;8524;57.650;11.926;2022-08-19T01:13:27;18.30;99.90
16814;DHT22;8524;57.650;11.926;2022-08-19T01:15:58;18.30;99.90
16814;DHT22;8524;57.650;11.926;2022-08-19T01:18:27;18.30;99.90
16814;DHT22;8524;57.650;11.926;2022-08-19T01:20:58;18.30;99.90
16814;DHT22;8524;57.650;11.926;2022-08-19T01:23:28;18.30;99.90
16814;DHT22;8524;57.650;11.926;2022-08-19T01:26:10;18.30;99.90
16814;DHT22;8524;57.650;11.926;2022-08-19T01:28:38;18.30;99.90
16814;DHT22;8524;57.650;11.926;2022-08-19T01:31:06;18.30;99.90
16814;DHT22;8524;57.650;11.926;2022-08-19T01:33:33;18.40;99.90
16814;DHT22;8524;57.650;11.926;2022-08-19T01:36:08;18.30;99.90
16814;DHT22;8524;57.650;11.926;2022-08-19T01:38:40;18.30;99.90
16814;DHT22;8524;57.650;11.926;2022-08-19T01:41:07;18.30;99.90
16814;DHT22;8524;57.650;11.926;2022-08-19T01:43:35;18.30;99.90
16814;DHT22;8524;57.650;11.926;2022-08-19T01:46:02;18.30;99.90
16814;DHT22;8524;57.650;11.926;2022-08-19T01:48:34;18.30;99.90
16814;DHT22;8524;57.650;11.926;2022-08-19T01:51:04;18.30;99.90
16814;DHT22;8524;57.650;11.926;2022-08-19T01:53:31;18.30;99.90
16814;DHT22;8524;57.650;11.926;2022-08-19T01:56:00;18.30;99.90
16814;DHT22;8524;57.650;11.926;2022-08-19T01:58:30;18.30;99.90
16814;DHT22;8524;57.650;11.926;2022-08-19T02:00:58;18.30;99.90
16814;DHT22;8524;57.650;11.926;2022-08-19T02:03:25;18.30;99.90
16814;DHT22;8524;57.650;11.926;2022-08-19T02:05:57;18.30;99.90
16814;DHT22;8524;57.650;11.926;2022-08-19T02:08:25;18.30;99.90
16814;DHT22;8524;57.650;11.926;2022-08-19T02:10:52;18.40;99.90
16814;DHT22;8524;57.650;11.926;2022-08-19T02:13:21;18.30;99.90
16814;DHT22;8524;57.650;11.926;2022-08-19T02:15:48;18.20;99.90
16814;DHT22;8524;57.650;11.926;2022-08-19T02:18:16;18.40;99.90
16814;DHT22;8524;57.650;11.926;2022-08-19T02:20:44;18.30;99.90
16814;DHT22;8524;57.650;11.926;2022-08-19T02:23:13;18.40;99.90
16814;DHT22;8524;57.650;11.926;2022-08-19T02:25:41;18.30;99.90
16814;DHT22;8524;57.650;11.926;2022-08-19T02:28:08;18.30;99.90
16814;DHT22;8524;57.650;11.926;2022-08-19T02:30:36;18.30;99.90
16814;DHT22;8524;57.650;11.926;2022-08-19T02:33:03;18.30;99.90
16814;DHT22;8524;57.650;11.926;2022-08-19T02:35:31;18.30;99.90
16814;DHT22;8524;57.650;11.926;2022-08-19T02:37:58;18.30;99.90
16814;DHT22;8524;57.650;11.926;2022-08-19T02:40:48;18.20;99.90
16814;DHT22;8524;57.650;11.926;2022-08-19T02:43:18;18.20;99.90
16814;DHT22;8524;57.650;11.926;2022-08-19T02:45:48;18.30;99.90
16814;DHT22;8524;57.650;11.926;2022-08-19T02:48:16;18.30;99.90
16814;DHT22;8524;57.650;11.926;2022-08-19T02:50:44;18.20;99.90
16814;DHT22;8524;57.650;11.926;2022-08-19T02:53:12;18.30;99.90
16814;DHT22;8524;57.650;11.926;2022-08-19T02:55:43;18.30;99.90
16814;DHT22;8524;57.650;11.926;2022-08-19T02:58:11;18.30;99.90
16814;DHT22;8524;57.650;11.926;2022-08-19T03:00:42;18.30;99.90
16814;DHT22;8524;57.650;11.926;2022-08-19T03:03:11;18.30;99.90
16814;DHT22;8524;57.650;11.926;2022-08-19T03:05:39;18.30;99.90
16814;DHT22;8524;57.650;11.926;2022-08-19T03:08:06;18.30;99.90
16814;DHT22;8524;57.650;11.926;2022-08-19T03:10:33;18.30;99.90
16814;DHT22;8524;57.650;11.926;2022-08-19T03:13:05;18.30;99.90
16814;DHT22;8524;57.650;11.926;2022-08-19T03:15:33;18.30;99.90
16814;DHT22;8524;57.650;11.926;2022-08-19T03:18:00;18.30;99.90
16814;DHT22;8524;57.650;11.926;2022-08-19T03:20:28;18.30;99.90
16814;DHT22;8524;57.650;11.926;2022-08-19T03:22:55;18.30;99.90
16814;DHT22;8524;57.650;11.926;2022-08-19T03:25:23;18.30;99.90
16814;DHT22;8524;57.650;11.926;2022-08-19T03:27:50;18.30;99.90
16814;DHT22;8524;57.650;11.926;2022-08-19T03:30:17;18.30;99.90
16814;DHT22;8524;57.650;11.926;2022-08-19T03:32:44;18.30;99.90
16814;DHT22;8524;57.650;11.926;2022-08-19T03:35:11;18.30;99.90
16814;DHT22;8524;57.650;11.926;2022-08-19T03:37:39;18.30;99.90
16814;DHT22;8524;57.650;11.926;2022-08-19T03:40:07;18.30;99.90
16814;DHT22;8524;57.650;11.926;2022-08-19T03:42:34;18.30;99.90
16814;DHT22;8524;57.650;11.926;2022-08-19T03:45:02;18.20;99.90
16814;DHT22;8524;57.650;11.926;2022-08-19T03:47:29;18.30;99.90
16814;DHT22;8524;57.650;11.926;2022-08-19T03:49:56;18.30;99.90
16814;DHT22;8524;57.650;11.926;2022-08-19T03:52:23;18.30;99.90
16814;DHT22;8524;57.650;11.926;2022-08-19T03:54:51;18.30;99.90
16814;DHT22;8524;57.650;11.926;2022-08-19T03:57:18;18.30;99.90
16814;DHT22;8524;57.650;11.926;2022-08-19T03:59:46;18.30;99.90
16814;DHT22;8524;57.650;11.926;2022-08-19T04:02:13;18.20;99.90
16814;DHT22;8524;57.650;11.926;2022-08-19T04:04:42;18.20;99.90
16814;DHT22;8524;57.650;11.926;2022-08-19T04:07:11;18.30;99.90
16814;DHT22;8524;57.650;11.926;2022-08-19T04:09:41;18.20;99.90
16814;DHT22;8524;57.650;11.926;2022-08-19T04:12:09;18.20;99.90
16814;DHT22;8524;57.650;11.926;2022-08-19T04:14:36;18.20;99.90
16814;DHT22;8524;57.650;11.926;2022-08-19T04:17:04;18.30;99.90
16814;DHT22;8524;57.650;11.926;2022-08-19T04:19:32;18.30;99.90
16814;DHT22;8524;57.650;11.926;2022-08-19T04:21:59;18.30;99.90
16814;DHT22;8524;57.650;11.926;2022-08-19T04:24:27;18.30;99.90
16814;DHT22;8524;57.650;11.926;2022-08-19T04:26:54;18.20;99.90
16814;DHT22;8524;57.650;11.926;2022-08-19T04:29:24;18.20;99.90
16814;DHT22;8524;57.650;11.926;2022-08-19T04:31:53;18.10;99.90
16814;DHT22;8524;57.650;11.926;2022-08-19T04:34:22;18.10;99.90
16814;DHT22;8524;57.650;11.926;2022-08-19T04:36:50;18.00;99.90
16814;DHT22;8524;57.650;11.926;2022-08-19T04:39:20;18.10;99.90
16814;DHT22;8524;57.650;11.926;2022-08-19T04:41:48;18.00;99.90
16814;DHT22;8524;57.650;11.926;2022-08-19T04:44:35;18.10;99.90
16814;DHT22;8524;57.650;11.926;2022-08-19T04:47:02;18.10;99.90
16814;DHT22;8524;57.650;11.926;2022-08-19T04:49:31;18.00;99.90
16814;DHT22;8524;57.650;11.926;2022-08-19T04:51:58;18.10;99.90
16814;DHT22;8524;57.650;11.926;2022-08-19T04:54:25;18.10;99.90
16814;DHT22;8524;57.650;11.926;2022-08-19T04:56:53;18.10;99.90
16814;DHT22;8524;57.650;11.926;2022-08-19T04:59:21;18.10;99.90
16814;DHT22;8524;57.650;11.926;2022-08-19T05:01:49;18.10;99.90
16814;DHT22;8524;57.650;11.926;2022-08-19T05:04:19;18.10;99.90
16814;DHT22;8524;57.650;11.926;2022-08-19T05:06:46;18.10;99.90
16814;DHT22;8524;57.650;11.926;2022-08-19T05:09:15;18.10;99.90
16814;DHT22;8524;57.650;11.926;2022-08-19T05:11:43;18.10;99.90
16814;DHT22;8524;57.650;11.926;2022-08-19T05:14:11;18.20;99.90
16814;DHT22;8524;57.650;11.926;2022-08-19T05:16:39;18.30;99.90
16814;DHT22;8524;57.650;11.926;2022-08-19T05:19:08;18.30;99.90
16814;DHT22;8524;57.650;11.926;2022-08-19T05:21:52;18.30;99.90
16814;DHT22;8524;57.650;11.926;2022-08-19T05:24:37;18.40;99.90
16814;DHT22;8524;57.650;11.926;2022-08-19T05:27:04;18.40;99.90
16814;DHT22;8524;57.650;11.926;2022-08-19T05:29:33;18.40;99.90
16814;DHT22;8524;57.650;11.926;2022-08-19T05:32:03;18.40;99.90
16814;DHT22;8524;57.650;11.926;2022-08-19T05:34:32;18.50;99.90
16814;DHT22;8524;57.650;11.926;2022-08-19T05:37:00;18.50;99.90
16814;DHT22;8524;57.650;11.926;2022-08-19T05:39:30;18.60;99.90
16814;DHT22;8524;57.650;11.926;2022-08-19T05:42:00;18.60;99.90
16814;DHT22;8524;57.650;11.926;2022-08-19T05:44:30;18.70;99.90
16814;DHT22;8524;57.650;11.926;2022-08-19T05:46:58;18.70;99.90
16814;DHT22;8524;57.650;11.926;2022-08-19T05:49:26;18.70;99.90
16814;DHT22;8524;57.650;11.926;2022-08-19T05:51:55;18.70;99.90
16814;DHT22;8524;57.650;11.926;2022-08-19T05:54:22;18.80;99.90
16814;DHT22;8524;57.650;11.926;2022-08-19T05:56:53;18.80;99.90
16814;DHT22;8524;57.650;11.926;2022-08-19T05:59:28;18.90;99.90
16814;DHT22;8524;57.650;11.926;2022-08-19T06:01:55;18.90;99.90
16814;DHT22;8524;57.650;11.926;2022-08-19T06:04:23;18.90;99.90
16814;DHT22;8524;57.650;11.926;2022-08-19T06:06:55;18.90;99.90
16814;DHT22;8524;57.650;11.926;2022-08-19T06:09:24;19.00;99.90
16814;DHT22;8524;57.650;11.926;2022-08-19T06:11:53;19.00;99.90
16814;DHT22;8524;57.650;11.926;2022-08-19T06:14:22;19.10;99.90
16814;DHT22;8524;57.650;11.926;2022-08-19T06:16:50;19.10;99.90
16814;DHT22;8524;57.650;11.926;2022-08-19T06:19:20;19.20;99.90
16814;DHT22;8524;57.650;11.926;2022-08-19T06:21:50;19.00;99.90
16814;DHT22;8524;57.650;11.926;2022-08-19T06:24:21;19.00;99.90
16814;DHT22;8524;57.650;11.926;2022-08-19T06:26:50;19.10;99.90
16814;DHT22;8524;57.650;11.926;2022-08-19T06:29:20;19.20;99.90
16814;DHT22;8524;57.650;11.926;2022-08-19T06:31:49;19.40;99.90
16814;DHT22;8524;57.650;11.926;2022-08-19T06:34:17;19.50;99.90
16814;DHT22;8524;57.650;11.926;2022-08-19T06:36:47;19.60;99.90
16814;DHT22;8524;57.650;11.926;2022-08-19T06:39:16;19.60;99.90
16814;DHT22;8524;57.650;11.926;2022-08-19T06:41:48;19.70;99.90
16814;DHT22;8524;57.650;11.926;2022-08-19T06:44:16;19.80;99.90
16814;DHT22;8524;57.650;11.926;2022-08-19T06:46:43;20.00;99.90
16814;DHT22;8524;57.650;11.926;2022-08-19T06:49:10;20.10;99.90
16814;DHT22;8524;57.650;11.926;2022-08-19T06:51:40;20.30;99.90
16814;DHT22;8524;57.650;11.926;2022-08-19T06:54:08;20.60;99.90
16814;DHT22;8524;57.650;11.926;2022-08-19T06:56:35;20.80;99.90
16814;DHT22;8524;57.650;11.926;2022-08-19T06:59:06;20.70;99.90
16814;DHT22;8524;57.650;11.926;2022-08-19T07:01:35;20.80;99.90
16814;DHT22;8524;57.650;11.926;2022-08-19T07:04:04;20.70;99.90
16814;DHT22;8524;57.650;11.926;2022-08-19T07:06:31;20.60;99.90
16814;DHT22;8524;57.650;11.926;2022-08-19T07:08:58;20.60;99.90
16814;DHT22;8524;57.650;11.926;2022-08-19T07:11:25;20.70;99.90
16814;DHT22;8524;57.650;11.926;2022-08-19T07:13:52;20.70;99.90
16814;DHT22;8524;57.650;11.926;2022-08-19T07:16:21;20.70;99.90
16814;DHT22;8524;57.650;11.926;2022-08-19T07:18:49;20.80;99.90
16814;DHT22;8524;57.650;11.926;2022-08-19T07:21:18;20.90;99.90
16814;DHT22;8524;57.650;11.926;2022-08-19T07:23:46;21.10;99.90
16814;DHT22;8524;57.650;11.926;2022-08-19T07:26:19;21.10;99.90
16814;DHT22;8524;57.650;11.926;2022-08-19T07:28:47;21.20;99.90
16814;DHT22;8524;57.650;11.926;2022-08-19T07:31:17;21.10;99.90
16814;DHT22;8524;57.650;11.926;2022-08-19T07:33:47;21.20;99.90
16814;DHT22;8524;57.650;11.926;2022-08-19T07:36:17;21.30;99.90
16814;DHT22;8524;57.650;11.926;2022-08-19T07:38:47;21.50;99.90
16814;DHT22;8524;57.650;11.926;2022-08-19T07:41:18;21.50;99.90
16814;DHT22;8524;57.650;11.926;2022-08-19T07:43:45;21.50;99.90
16814;DHT22;8524;57.650;11.926;2022-08-19T07:46:13;21.70;99.90
16814;DHT22;8524;57.650;11.926;2022-08-19T07:48:42;21.90;99.90
16814;DHT22;8524;57.650;11.926;2022-08-19T07:51:15;22.10;99.90
16814;DHT22;8524;57.650;11.926;2022-08-19T07:53:43;22.50;99.90
16814;DHT22;8524;57.650;11.926;2022-08-19T07:56:12;22.70;99.90
16814;DHT22;8524;57.650;11.926;2022-08-19T07:58:42;22.80;99.90
16814;DHT22;8524;57.650;11.926;2022-08-19T08:01:11;22.90;99.90
16814;DHT22;8524;57.650;11.926;2022-08-19T08:03:42;22.90;99.90
16814;DHT22;8524;57.650;11.926;2022-08-19T08:06:28;22.90;99.90
16814;DHT22;8524;57.650;11.926;2022-08-19T08:09:13;22.90;99.90
16814;DHT22;8524;57.650;11.926;2022-08-19T08:11:50;23.20;99.90
16814;DHT22;8524;57.650;11.926;2022-08-19T08:14:20;23.20;99.90
16814;DHT22;8524;57.650;11.926;2022-08-19T08:16:48;23.30;99.90
16814;DHT22;8524;57.650;11.926;2022-08-19T08:19:16;23.30;99.90
16814;DHT22;8524;57.650;11.926;2022-08-19T08:21:49;23.50;99.90
16814;DHT22;8524;57.650;11.926;2022-08-19T08:24:21;23.70;99.90
16814;DHT22;8524;57.650;11.926;2022-08-19T08:26:49;23.90;99.90
16814;DHT22;8524;57.650;11.926;2022-08-19T08:29:16;24.20;99.90
16814;DHT22;8524;57.650;11.926;2022-08-19T08:31:45;24.80;99.90
16814;DHT22;8524;57.650;11.926;2022-08-19T08:34:14;24.80;99.90
16814;DHT22;8524;57.650;11.926;2022-08-19T08:36:43;24.70;99.90
16814;DHT22;8524;57.650;11.926;2022-08-19T08:39:14;24.60;99.90
16814;DHT22;8524;57.650;11.926;2022-08-19T08:41:47;24.60;99.90
16814;DHT22;8524;57.650;11.926;2022-08-19T08:44:23;24.60;99.90
16814;DHT22;8524;57.650;11.926;2022-08-19T08:46:55;24.70;99.90
16814;DHT22;8524;57.650;11.926;2022-08-19T08:49:29;24.80;99.90
16814;DHT22;8524;57.650;11.926;2022-08-19T08:52:03;24.60;99.90
16814;DHT22;8524;57.650;11.926;2022-08-19T08:54:36;24.40;99.90
16814;DHT22;8524;57.650;11.926;2022-08-19T08:57:09;24.30;99.90
16814;DHT22;8524;57.650;11.926;2022-08-19T08:59:42;24.50;99.90
16814;DHT22;8524;57.650;11.926;2022-08-19T09:02:10;24.80;99.90
16814;DHT22;8524;57.650;11.926;2022-08-19T09:04:37;24.90;99.90
16814;DHT22;8524;57.650;11.926;2022-08-19T09:07:23;25.00;99.90
16814;DHT22;8524;57.650;11.926;2022-08-19T09:10:06;25.30;99.90
16814;DHT22;8524;57.650;11.926;2022-08-19T09:12:41;25.00;99.90
16814;DHT22;8524;57.650;11.926;2022-08-19T09:15:25;24.90;99.90
16814;DHT22;8524;57.650;11.926;2022-08-19T09:17:57;24.70;99.90
16814;DHT22;8524;57.650;11.926;2022-08-19T09:20:27;24.60;99.90
16814;DHT22;8524;57.650;11.926;2022-08-19T09:22:54;24.50;99.90
16814;DHT22;8524;57.650;11.926;2022-08-19T09:25:23;24.40;99.90
16814;DHT22;8524;57.650;11.926;2022-08-19T09:27:51;24.30;99.90
16814;DHT22;8524;57.650;11.926;2022-08-19T09:30:21;24.30;99.90
16814;DHT22;8524;57.650;11.926;2022-08-19T09:32:49;24.30;99.90
16814;DHT22;8524;57.650;11.926;2022-08-19T09:35:19;24.20;99.90
16814;DHT22;8524;57.650;11.926;2022-08-19T09:37:47;24.00;99.90
16814;DHT22;8524;57.650;11.926;2022-08-19T09:40:15;24.20;99.90
16814;DHT22;8524;57.650;11.926;2022-08-19T09:42:44;24.50;99.90
16814;DHT22;8524;57.650;11.926;2022-08-19T09:45:12;24.70;99.90
16814;DHT22;8524;57.650;11.926;2022-08-19T09:47:39;24.80;99.90
16814;DHT22;8524;57.650;11.926;2022-08-19T09:50:09;24.40;99.90
16814;DHT22;8524;57.650;11.926;2022-08-19T09:52:36;24.40;99.90
16814;DHT22;8524;57.650;11.926;2022-08-19T09:55:07;24.40;99.90
16814;DHT22;8524;57.650;11.926;2022-08-19T09:57:35;23.90;99.90
16814;DHT22;8524;57.650;11.926;2022-08-19T10:00:05;23.90;99.90
16814;DHT22;8524;57.650;11.926;2022-08-19T10:02:32;24.10;99.90
16814;DHT22;8524;57.650;11.926;2022-08-19T10:05:00;24.30;99.90
16814;DHT22;8524;57.650;11.926;2022-08-19T10:07:59;24.20;99.90
16814;DHT22;8524;57.650;11.926;2022-08-19T10:10:26;24.30;99.90
16814;DHT22;8524;57.650;11.926;2022-08-19T10:12:53;24.70;99.90
16814;DHT22;8524;57.650;11.926;2022-08-19T10:15:22;25.00;99.90
16814;DHT22;8524;57.650;11.926;2022-08-19T10:17:49;25.10;99.90
16814;DHT22;8524;57.650;11.926;2022-08-19T10:20:16;25.00;99.90
16814;DHT22;8524;57.650;11.926;2022-08-19T10:22:43;24.80;99.90
16814;DHT22;8524;57.650;11.926;2022-08-19T10:25:10;25.10;99.90
16814;DHT22;8524;57.650;11.926;2022-08-19T10:27:42;25.30;99.90
16814;DHT22;8524;57.650;11.926;2022-08-19T10:30:10;25.20;99.90
16814;DHT22;8524;57.650;11.926;2022-08-19T10:32:39;25.00;99.90
16814;DHT22;8524;57.650;11.926;2022-08-19T10:35:09;24.70;99.90
16814;DHT22;8524;57.650;11.926;2022-08-19T10:37:37;24.80;99.90
16814;DHT22;8524;57.650;11.926;2022-08-19T10:40:06;24.80;99.90
16814;DHT22;8524;57.650;11.926;2022-08-19T10:42:34;24.80;99.90
16814;DHT22;8524;57.650;11.926;2022-08-19T10:45:05;24.80;99.90
16814;DHT22;8524;57.650;11.926;2022-08-19T10:47:32;24.60;99.90
16814;DHT22;8524;57.650;11.926;2022-08-19T10:50:01;24.30;99.90
16814;DHT22;8524;57.650;11.926;2022-08-19T10:52:48;24.30;99.90
16814;DHT22;8524;57.650;11.926;2022-08-19T10:55:15;24.50;99.90
16814;DHT22;8524;57.650;11.926;2022-08-19T10:58:00;24.90;99.90
16814;DHT22;8524;57.650;11.926;2022-08-19T11:00:28;25.10;99.90
16814;DHT22;8524;57.650;11.926;2022-08-19T11:02:56;25.30;99.90
16814;DHT22;8524;57.650;11.926;2022-08-19T11:05:24;25.70;99.90
16814;DHT22;8524;57.650;11.926;2022-08-19T11:07:52;26.10;99.90
16814;DHT22;8524;57.650;11.926;2022-08-19T11:10:19;26.60;99.90
16814;DHT22;8524;57.650;11.926;2022-08-19T11:12:46;26.60;99.90
16814;DHT22;8524;57.650;11.926;2022-08-19T11:15:13;26.50;99.90
16814;DHT22;8524;57.650;11.926;2022-08-19T11:17:41;26.30;99.90
16814;DHT22;8524;57.650;11.926;2022-08-19T11:20:10;26.20;99.90
16814;DHT22;8524;57.650;11.926;2022-08-19T11:22:39;26.00;99.90
16814;DHT22;8524;57.650;11.926;2022-08-19T11:25:07;26.00;99.90
16814;DHT22;8524;57.650;11.926;2022-08-19T11:27:38;25.90;99.90
16814;DHT22;8524;57.650;11.926;2022-08-19T11:30:08;26.30;99.90
16814;DHT22;8524;57.650;11.926;2022-08-19T11:32:35;25.80;99.90
16814;DHT22;8524;57.650;11.926;2022-08-19T11:35:02;25.50;99.90
16814;DHT22;8524;57.650;11.926;2022-08-19T11:37:33;26.10;99.90
16814;DHT22;8524;57.650;11.926;2022-08-19T11:40:05;26.20;99.90
16814;DHT22;8524;57.650;11.926;2022-08-19T11:42:33;26.40;99.90
16814;DHT22;8524;57.650;11.926;2022-08-19T11:45:17;25.90;99.90
16814;DHT22;8524;57.650;11.926;2022-08-19T11:47:44;26.00;99.90
16814;DHT22;8524;57.650;11.926;2022-08-19T11:50:12;26.40;99.90
16814;DHT22;8524;57.650;11.926;2022-08-19T11:52:40;26.50;99.90
16814;DHT22;8524;57.650;11.926;2022-08-19T11:55:10;26.40;99.90
16814;DHT22;8524;57.650;11.926;2022-08-19T11:57:37;26.20;99.90
16814;DHT22;8524;57.650;11.926;2022-08-19T12:00:06;26.20;99.90
16814;DHT22;8524;57.650;11.926;2022-08-19T12:02:34;26.10;99.90
16814;DHT22;8524;57.650;11.926;2022-08-19T12:05:01;25.90;99.90
16814;DHT22;8524;57.650;11.926;2022-08-19T12:07:31;25.70;99.90
16814;DHT22;8524;57.650;11.926;2022-08-19T12:09:58;25.50;99.90
16814;DHT22;8524;57.650;11.926;2022-08-19T12:12:27;25.80;99.90
16814;DHT22;8524;57.650;11.926;2022-08-19T12:14:54;26.00;99.90
16814;DHT22;8524;57.650;11.926;2022-08-19T12:17:24;26.10;99.90
16814;DHT22;8524;57.650;11.926;2022-08-19T12:19:51;26.30;99.90
16814;DHT22;8524;57.650;11.926;2022-08-19T12:22:19;26.40;99.90
16814;DHT22;8524;57.650;11.926;2022-08-19T12:24:47;26.40;99.90
16814;DHT22;8524;57.650;11.926;2022-08-19T12:27:16;26.40;99.90
16814;DHT22;8524;57.650;11.926;2022-08-19T12:29:44;26.40;99.90
16814;DHT22;8524;57.650;11.926;2022-08-19T12:32:11;26.60;99.90
16814;DHT22;8524;57.650;11.926;2022-08-19T12:34:39;26.70;99.90
16814;DHT22;8524;57.650;11.926;2022-08-19T12:37:06;26.50;99.90
16814;DHT22;8524;57.650;11.926;2022-08-19T12:39:35;26.40;99.90
16814;DHT22;8524;57.650;11.926;2022-08-19T12:42:03;26.40;99.90
16814;DHT22;8524;57.650;11.926;2022-08-19T12:44:31;26.20;99.90
16814;DHT22;8524;57.650;11.926;2022-08-19T12:46:59;25.90;99.90
16814;DHT22;8524;57.650;11.926;2022-08-19T12:49:28;26.00;99.90
16814;DHT22;8524;57.650;11.926;2022-08-19T12:51:55;25.90;99.90
16814;DHT22;8524;57.650;11.926;2022-08-19T12:54:23;25.90;99.90
16814;DHT22;8524;57.650;11.926;2022-08-19T12:56:50;25.70;99.90
16814;DHT22;8524;57.650;11.926;2022-08-19T12:59:17;25.60;99.90
16814;DHT22;8524;57.650;11.926;2022-08-19T13:01:45;25.50;99.90
16814;DHT22;8524;57.650;11.926;2022-08-19T13:04:13;25.10;99.90
16814;DHT22;8524;57.650;11.926;2022-08-19T13:06:41;25.10;99.90
16814;DHT22;8524;57.650;11.926;2022-08-19T13:09:08;24.90;99.90
16814;DHT22;8524;57.650;11.926;2022-08-19T13:11:37;24.80;99.90
16814;DHT22;8524;57.650;11.926;2022-08-19T13:14:04;24.90;99.90
16814;DHT22;8524;57.650;11.926;2022-08-19T13:16:31;24.80;99.90
16814;DHT22;8524;57.650;11.926;2022-08-19T13:18:58;24.70;99.90
16814;DHT22;8524;57.650;11.926;2022-08-19T13:21:29;24.70;99.90
16814;DHT22;8524;57.650;11.926;2022-08-19T13:23:57;24.60;99.90
16814;DHT22;8524;57.650;11.926;2022-08-19T13:26:24;24.60;99.90
16814;DHT22;8524;57.650;11.926;2022-08-19T13:28:51;24.60;99.90
16814;DHT22;8524;57.650;11.926;2022-08-19T13:31:38;24.50;99.90
16814;DHT22;8524;57.650;11.926;2022-08-19T13:34:28;24.60;99.90
16814;DHT22;8524;57.650;11.926;2022-08-19T13:36:58;24.50;99.90
16814;DHT22;8524;57.650;11.926;2022-08-19T13:39:25;24.30;99.90
16814;DHT22;8524;57.650;11.926;2022-08-19T13:41:53;24.30;99.90
16814;DHT22;8524;57.650;11.926;2022-08-19T13:44:20;24.30;99.90
16814;DHT22;8524;57.650;11.926;2022-08-19T13:46:48;24.10;99.90
16814;DHT22;8524;57.650;11.926;2022-08-19T13:50:03;23.90;99.90
16814;DHT22;8524;57.650;11.926;2022-08-19T13:52:32;23.90;99.90
16814;DHT22;8524;57.650;11.926;2022-08-19T13:54:59;24.10;99.90
16814;DHT22;8524;57.650;11.926;2022-08-19T13:57:26;23.90;99.90
16814;DHT22;8524;57.650;11.926;2022-08-19T13:59:53;23.90;99.90
16814;DHT22;8524;57.650;11.926;2022-08-19T14:02:20;23.90;99.90
16814;DHT22;8524;57.650;11.926;2022-08-19T14:04:47;23.60;99.90
16814;DHT22;8524;57.650;11.926;2022-08-19T14:07:14;23.80;99.90
16814;DHT22;8524;57.650;11.926;2022-08-19T14:09:42;23.80;99.90
16814;DHT22;8524;57.650;11.926;2022-08-19T14:12:09;23.90;99.90
16814;DHT22;8524;57.650;11.926;2022-08-19T14:14:36;24.10;99.90
16814;DHT22;8524;57.650;11.926;2022-08-19T14:17:06;24.20;99.90
16814;DHT22;8524;57.650;11.926;2022-08-19T14:19:34;23.90;99.90
16814;DHT22;8524;57.650;11.926;2022-08-19T14:22:02;23.90;99.90
16814;DHT22;8524;57.650;11.926;2022-08-19T14:24:30;23.90;99.90
16814;DHT22;8524;57.650;11.926;2022-08-19T14:26:59;23.80;99.90
16814;DHT22;8524;57.650;11.926;2022-08-19T14:29:26;23.80;99.90
16814;DHT22;8524;57.650;11.926;2022-08-19T14:31:54;23.50;99.90
16814;DHT22;8524;57.650;11.926;2022-08-19T14:34:21;23.60;99.90
16814;DHT22;8524;57.650;11.926;2022-08-19T14:36:48;23.60;99.90
16814;DHT22;8524;57.650;11.926;2022-08-19T14:39:15;23.80;99.90
16814;DHT22;8524;57.650;11.926;2022-08-19T14:41:42;23.90;99.90
16814;DHT22;8524;57.650;11.926;2022-08-19T14:44:11;24.00;99.90
16814;DHT22;8524;57.650;11.926;2022-08-19T14:46:39;24.00;99.90
16814;DHT22;8524;57.650;11.926;2022-08-19T14:49:07;23.70;99.90
16814;DHT22;8524;57.650;11.926;2022-08-19T14:51:34;23.40;99.90
16814;DHT22;8524;57.650;11.926;2022-08-19T14:54:01;23.40;99.90
16814;DHT22;8524;57.650;11.926;2022-08-19T14:56:29;23.30;99.90
16814;DHT22;8524;57.650;11.926;2022-08-19T14:58:56;23.20;99.90
16814;DHT22;8524;57.650;11.926;2022-08-19T15:01:27;23.30;99.90
16814;DHT22;8524;57.650;11.926;2022-08-19T15:03:54;23.30;99.90
16814;DHT22;8524;57.650;11.926;2022-08-19T15:06:22;23.30;99.90
16814;DHT22;8524;57.650;11.926;2022-08-19T15:08:50;23.30;99.90
16814;DHT22;8524;57.650;11.926;2022-08-19T15:11:19;23.40;99.90
16814;DHT22;8524;57.650;11.926;2022-08-19T15:13:47;22.90;99.90
16814;DHT22;8524;57.650;11.926;2022-08-19T15:16:16;22.60;99.90
16814;DHT22;8524;57.650;11.926;2022-08-19T15:18:45;22.80;99.90
16814;DHT22;8524;57.650;11.926;2022-08-19T15:21:14;22.90;99.90
16814;DHT22;8524;57.650;11.926;2022-08-19T15:23:42;23.00;99.90
16814;DHT22;8524;57.650;11.926;2022-08-19T15:26:09;22.90;99.90
16814;DHT22;8524;57.650;11.926;2022-08-19T15:28:36;22.90;99.90
16814;DHT22;8524;57.650;11.926;2022-08-19T15:31:04;23.10;99.90
16814;DHT22;8524;57.650;11.926;2022-08-19T15:33:31;23.20;99.90
16814;DHT22;8524;57.650;11.926;2022-08-19T15:36:02;23.30;99.90
16814;DHT22;8524;57.650;11.926;2022-08-19T15:38:30;23.30;99.90
16814;DHT22;8524;57.650;11.926;2022-08-19T15:40:59;23.30;99.90
16814;DHT22;8524;57.650;11.926;2022-08-19T15:43:49;23.20;99.90